Loveville, MD

7:56 PM EST on December 22, 2014 (GMT -0500)
Leonard's Grant | Change Station
CLOSE
Current Station
Personal Weather Station
Location: Leonardtown, MD
Elevation: 112 ft
Nearby Weather Stations

Elev 112 ft 38.32 °N, 76.64 °W | Updated 5 minutes ago

Overcast
Overcast
36.5 °F
Feels Like 33 °F
N
4.0
Wind Variable Wind from NNW
Gusts 6.0 mph

Today
High -- | Low -- °F
--% Chance of Precip.
Yesterday
High -- | Low -- °F
Precip. -- in
7:20 AM 4:50 PM
New Moon, 1% visible
Pressure 30.14 in
Visibility 2.5 miles
Clouds Overcast 300 ft
Windchill 33 °F
Dew Point 36 °F
Humidity 97%
Rainfall 0.12 in
Snow Depth Not available.
UV 0 out of 12
Pollen .10 out of 12
Air Quality Not available.
Flu Activity Not available.
METAR K2W6 230042Z AUTO 36004KT 2 1/2SM OVC003 02/02 A3014 RMK AO1

More Conditions Fewer Conditions

Pressure 30.14 in
Visibility 2.5 miles
Clouds Overcast 300 ft
Windchill 33 °F
Dew Point 36 °F
Humidity 97%
Rainfall 0.12 in
Snow Depth Not available.
UV 0 out of 12
Pollen .10 out of 12
Air Quality Not available.
Flu Activity Not available.
METAR K2W6 230042Z AUTO 36004KT 2 1/2SM OVC003 02/02 A3014 RMK AO1

More Conditions Fewer Conditions

10-Day Weather Forecast

Almanac

Astronomy

Dec. 22, 2014 Rise Set
Actual Time
Civil Twilight
Nautical Twilight
Astronomical Twilight
Moon
Length of Visible Light
Length of Day
Tomorrow will be .
, % of the Moon is Illuminated

Today's Extremes

State Highs State Lows

Community

WunderPhotos

Upload Photos

1,779,740 photos uploaded!

WunderBlogs® & News

Nearby

Air Quality

  Air Quality AQ Index Pollutant
Not available.

Snow Depth

Station Depth Elevation

Earthquake Activity

City Distance Mag. Time & Date
Minimum magnitude displayed is 2.5.

Coastal Water Temperatures

Place Temperature

Nearby Weather Stations